sensor_id;sensor_type;location;lat;lon;timestamp;temperature;humidity
44277;DHT22;29973;43.742;1.236;2023-06-14T00:02:11;18.20;99.90
44277;DHT22;29973;43.742;1.236;2023-06-14T00:04:37;18.30;99.90
44277;DHT22;29973;43.742;1.236;2023-06-14T00:07:05;18.30;99.90
44277;DHT22;29973;43.742;1.236;2023-06-14T00:09:34;18.20;99.90
44277;DHT22;29973;43.742;1.236;2023-06-14T00:12:00;18.20;99.90
44277;DHT22;29973;43.742;1.236;2023-06-14T00:14:26;18.20;99.90
44277;DHT22;29973;43.742;1.236;2023-06-14T00:16:52;18.20;99.90
44277;DHT22;29973;43.742;1.236;2023-06-14T00:19:18;18.30;99.90
44277;DHT22;29973;43.742;1.236;2023-06-14T00:21:45;18.30;99.90
44277;DHT22;29973;43.742;1.236;2023-06-14T00:24:11;18.30;99.90
44277;DHT22;29973;43.742;1.236;2023-06-14T00:26:37;18.30;99.90
44277;DHT22;29973;43.742;1.236;2023-06-14T00:29:02;18.30;99.90
44277;DHT22;29973;43.742;1.236;2023-06-14T00:31:28;18.40;99.90
44277;DHT22;29973;43.742;1.236;2023-06-14T00:33:54;18.60;99.90
44277;DHT22;29973;43.742;1.236;2023-06-14T00:36:20;18.70;99.90
44277;DHT22;29973;43.742;1.236;2023-06-14T00:38:46;18.70;99.90
44277;DHT22;29973;43.742;1.236;2023-06-14T00:41:11;18.70;99.90
44277;DHT22;29973;43.742;1.236;2023-06-14T00:43:37;18.70;99.90
44277;DHT22;29973;43.742;1.236;2023-06-14T00:46:03;18.70;99.90
44277;DHT22;29973;43.742;1.236;2023-06-14T00:48:29;18.70;99.90
44277;DHT22;29973;43.742;1.236;2023-06-14T00:50:57;18.70;99.90
44277;DHT22;29973;43.742;1.236;2023-06-14T00:53:23;18.70;99.90
44277;DHT22;29973;43.742;1.236;2023-06-14T00:55:50;18.60;99.90
44277;DHT22;29973;43.742;1.236;2023-06-14T00:58:16;18.60;99.90
44277;DHT22;29973;43.742;1.236;2023-06-14T01:00:42;18.50;99.90
44277;DHT22;29973;43.742;1.236;2023-06-14T01:03:08;18.50;99.90
44277;DHT22;29973;43.742;1.236;2023-06-14T01:05:38;18.60;99.90
44277;DHT22;29973;43.742;1.236;2023-06-14T01:13:38;18.40;99.90
44277;DHT22;29973;43.742;1.236;2023-06-14T01:16:05;18.40;99.90
44277;DHT22;29973;43.742;1.236;2023-06-14T01:18:32;18.30;99.90
44277;DHT22;29973;43.742;1.236;2023-06-14T01:20:59;18.20;99.90
44277;DHT22;29973;43.742;1.236;2023-06-14T01:23:25;18.20;99.90
44277;DHT22;29973;43.742;1.236;2023-06-14T01:25:58;18.20;99.90
44277;DHT22;29973;43.742;1.236;2023-06-14T01:28:25;18.10;99.90
44277;DHT22;29973;43.742;1.236;2023-06-14T01:30:53;18.10;99.90
44277;DHT22;29973;43.742;1.236;2023-06-14T01:33:25;18.00;99.90
44277;DHT22;29973;43.742;1.236;2023-06-14T01:35:53;18.00;99.90
44277;DHT22;29973;43.742;1.236;2023-06-14T01:38:29;18.10;99.90
44277;DHT22;29973;43.742;1.236;2023-06-14T01:40:57;18.00;99.90
44277;DHT22;29973;43.742;1.236;2023-06-14T01:43:23;17.90;99.90
44277;DHT22;29973;43.742;1.236;2023-06-14T01:45:51;17.90;99.90
44277;DHT22;29973;43.742;1.236;2023-06-14T01:48:17;17.90;99.90
44277;DHT22;29973;43.742;1.236;2023-06-14T01:50:43;17.90;99.90
44277;DHT22;29973;43.742;1.236;2023-06-14T01:53:09;17.80;99.90
44277;DHT22;29973;43.742;1.236;2023-06-14T01:55:36;17.80;99.90
44277;DHT22;29973;43.742;1.236;2023-06-14T01:58:04;17.90;99.90
44277;DHT22;29973;43.742;1.236;2023-06-14T02:00:30;17.80;99.90
44277;DHT22;29973;43.742;1.236;2023-06-14T02:02:56;17.80;99.90
44277;DHT22;29973;43.742;1.236;2023-06-14T02:05:23;17.90;99.90
44277;DHT22;29973;43.742;1.236;2023-06-14T02:07:49;17.90;99.90
44277;DHT22;29973;43.742;1.236;2023-06-14T02:10:16;17.90;99.90
44277;DHT22;29973;43.742;1.236;2023-06-14T02:12:43;17.80;99.90
44277;DHT22;29973;43.742;1.236;2023-06-14T02:15:09;17.80;99.90
44277;DHT22;29973;43.742;1.236;2023-06-14T02:17:51;17.80;99.90
44277;DHT22;29973;43.742;1.236;2023-06-14T02:20:17;17.80;99.90
44277;DHT22;29973;43.742;1.236;2023-06-14T02:22:44;17.80;99.90
44277;DHT22;29973;43.742;1.236;2023-06-14T02:25:09;17.80;99.90
44277;DHT22;29973;43.742;1.236;2023-06-14T02:27:35;17.70;99.90
44277;DHT22;29973;43.742;1.236;2023-06-14T02:30:01;17.70;99.90
44277;DHT22;29973;43.742;1.236;2023-06-14T02:32:27;17.70;99.90
44277;DHT22;29973;43.742;1.236;2023-06-14T02:34:56;17.60;99.90
44277;DHT22;29973;43.742;1.236;2023-06-14T02:37:22;17.40;99.90
44277;DHT22;29973;43.742;1.236;2023-06-14T02:39:48;17.30;99.90
44277;DHT22;29973;43.742;1.236;2023-06-14T02:42:14;17.30;99.90
44277;DHT22;29973;43.742;1.236;2023-06-14T02:44:40;17.30;99.90
44277;DHT22;29973;43.742;1.236;2023-06-14T02:47:06;17.20;99.90
44277;DHT22;29973;43.742;1.236;2023-06-14T02:49:31;17.20;99.90
44277;DHT22;29973;43.742;1.236;2023-06-14T02:51:57;17.20;99.90
44277;DHT22;29973;43.742;1.236;2023-06-14T02:54:23;17.10;99.90
44277;DHT22;29973;43.742;1.236;2023-06-14T02:56:49;17.10;99.90
44277;DHT22;29973;43.742;1.236;2023-06-14T02:59:15;17.10;99.90
44277;DHT22;29973;43.742;1.236;2023-06-14T03:01:42;17.00;99.90
44277;DHT22;29973;43.742;1.236;2023-06-14T03:04:08;17.00;99.90
44277;DHT22;29973;43.742;1.236;2023-06-14T03:06:34;17.00;99.90
44277;DHT22;29973;43.742;1.236;2023-06-14T03:09:00;16.90;99.90
44277;DHT22;29973;43.742;1.236;2023-06-14T03:11:30;16.90;99.90
44277;DHT22;29973;43.742;1.236;2023-06-14T03:13:56;16.90;99.90
44277;DHT22;29973;43.742;1.236;2023-06-14T03:16:22;16.90;99.90
44277;DHT22;29973;43.742;1.236;2023-06-14T03:18:50;16.90;99.90
44277;DHT22;29973;43.742;1.236;2023-06-14T03:21:16;16.90;99.90
44277;DHT22;29973;43.742;1.236;2023-06-14T03:23:43;16.90;99.90
44277;DHT22;29973;43.742;1.236;2023-06-14T03:26:09;16.80;99.90
44277;DHT22;29973;43.742;1.236;2023-06-14T03:28:38;16.80;99.90
44277;DHT22;29973;43.742;1.236;2023-06-14T03:31:04;16.80;99.90
44277;DHT22;29973;43.742;1.236;2023-06-14T03:33:29;16.80;99.90
44277;DHT22;29973;43.742;1.236;2023-06-14T03:35:55;16.80;99.90
44277;DHT22;29973;43.742;1.236;2023-06-14T03:38:22;16.80;99.90
44277;DHT22;29973;43.742;1.236;2023-06-14T03:40:47;16.70;99.90
44277;DHT22;29973;43.742;1.236;2023-06-14T03:43:13;16.80;99.90
44277;DHT22;29973;43.742;1.236;2023-06-14T03:45:39;16.70;99.90
44277;DHT22;29973;43.742;1.236;2023-06-14T03:48:05;16.80;99.90
44277;DHT22;29973;43.742;1.236;2023-06-14T03:50:32;16.70;99.90
44277;DHT22;29973;43.742;1.236;2023-06-14T03:52:58;16.80;99.90
44277;DHT22;29973;43.742;1.236;2023-06-14T03:55:24;16.90;99.90
44277;DHT22;29973;43.742;1.236;2023-06-14T03:57:53;16.80;99.90
44277;DHT22;29973;43.742;1.236;2023-06-14T04:00:19;16.80;99.90
44277;DHT22;29973;43.742;1.236;2023-06-14T04:02:45;16.80;99.90
44277;DHT22;29973;43.742;1.236;2023-06-14T04:05:11;16.90;99.90
44277;DHT22;29973;43.742;1.236;2023-06-14T04:07:36;16.80;99.90
44277;DHT22;29973;43.742;1.236;2023-06-14T04:10:08;16.90;99.90
44277;DHT22;29973;43.742;1.236;2023-06-14T04:12:34;16.90;99.90
44277;DHT22;29973;43.742;1.236;2023-06-14T04:14:59;16.90;99.90
44277;DHT22;29973;43.742;1.236;2023-06-14T04:17:26;16.90;99.90
44277;DHT22;29973;43.742;1.236;2023-06-14T04:19:52;16.80;99.90
44277;DHT22;29973;43.742;1.236;2023-06-14T04:22:17;16.90;99.90
44277;DHT22;29973;43.742;1.236;2023-06-14T04:24:43;16.80;99.90
44277;DHT22;29973;43.742;1.236;2023-06-14T04:27:10;16.80;99.90
44277;DHT22;29973;43.742;1.236;2023-06-14T04:29:36;17.00;99.90
44277;DHT22;29973;43.742;1.236;2023-06-14T04:32:01;16.90;99.90
44277;DHT22;29973;43.742;1.236;2023-06-14T04:34:28;17.00;99.90
44277;DHT22;29973;43.742;1.236;2023-06-14T04:36:59;16.90;99.90
44277;DHT22;29973;43.742;1.236;2023-06-14T04:39:27;17.00;99.90
44277;DHT22;29973;43.742;1.236;2023-06-14T04:41:53;17.00;99.90
44277;DHT22;29973;43.742;1.236;2023-06-14T04:44:23;17.00;99.90
44277;DHT22;29973;43.742;1.236;2023-06-14T04:46:58;17.10;99.90
44277;DHT22;29973;43.742;1.236;2023-06-14T04:49:24;17.10;99.90
44277;DHT22;29973;43.742;1.236;2023-06-14T04:51:50;17.10;99.90
44277;DHT22;29973;43.742;1.236;2023-06-14T04:54:23;17.10;99.90
44277;DHT22;29973;43.742;1.236;2023-06-14T04:56:51;17.20;99.90
44277;DHT22;29973;43.742;1.236;2023-06-14T04:59:16;17.20;99.90
44277;DHT22;29973;43.742;1.236;2023-06-14T05:01:43;17.20;99.90
44277;DHT22;29973;43.742;1.236;2023-06-14T05:04:15;17.30;99.90
44277;DHT22;29973;43.742;1.236;2023-06-14T05:06:42;17.30;99.90
44277;DHT22;29973;43.742;1.236;2023-06-14T05:09:10;17.30;99.90
44277;DHT22;29973;43.742;1.236;2023-06-14T05:11:36;17.40;99.90
44277;DHT22;29973;43.742;1.236;2023-06-14T05:14:02;17.40;99.90
44277;DHT22;29973;43.742;1.236;2023-06-14T05:16:27;17.50;99.90
44277;DHT22;29973;43.742;1.236;2023-06-14T05:18:54;17.70;99.90
44277;DHT22;29973;43.742;1.236;2023-06-14T05:21:20;17.60;99.90
44277;DHT22;29973;43.742;1.236;2023-06-14T05:23:47;17.50;99.90
44277;DHT22;29973;43.742;1.236;2023-06-14T05:26:13;17.40;99.90
44277;DHT22;29973;43.742;1.236;2023-06-14T05:28:38;17.70;99.90
44277;DHT22;29973;43.742;1.236;2023-06-14T05:31:04;17.70;99.90
44277;DHT22;29973;43.742;1.236;2023-06-14T05:33:30;17.80;99.90
44277;DHT22;29973;43.742;1.236;2023-06-14T05:35:56;17.90;99.90
44277;DHT22;29973;43.742;1.236;2023-06-14T05:38:22;17.80;99.90
44277;DHT22;29973;43.742;1.236;2023-06-14T05:40:47;18.00;99.90
44277;DHT22;29973;43.742;1.236;2023-06-14T05:43:13;18.00;99.90
44277;DHT22;29973;43.742;1.236;2023-06-14T05:45:39;18.10;99.90
44277;DHT22;29973;43.742;1.236;2023-06-14T05:48:05;18.10;99.90
44277;DHT22;29973;43.742;1.236;2023-06-14T05:50:30;18.20;99.90
44277;DHT22;29973;43.742;1.236;2023-06-14T05:52:56;18.30;99.90
44277;DHT22;29973;43.742;1.236;2023-06-14T05:55:22;18.30;99.90
44277;DHT22;29973;43.742;1.236;2023-06-14T05:57:48;18.40;99.90
44277;DHT22;29973;43.742;1.236;2023-06-14T06:00:14;18.40;99.90
44277;DHT22;29973;43.742;1.236;2023-06-14T06:02:44;18.40;99.90
44277;DHT22;29973;43.742;1.236;2023-06-14T06:05:11;18.40;99.90
44277;DHT22;29973;43.742;1.236;2023-06-14T06:07:38;18.40;99.90
44277;DHT22;29973;43.742;1.236;2023-06-14T06:10:05;18.50;99.90
44277;DHT22;29973;43.742;1.236;2023-06-14T06:12:31;18.60;99.90
44277;DHT22;29973;43.742;1.236;2023-06-14T06:14:59;18.70;99.90
44277;DHT22;29973;43.742;1.236;2023-06-14T06:17:25;18.70;99.90
44277;DHT22;29973;43.742;1.236;2023-06-14T06:19:51;18.80;99.90
44277;DHT22;29973;43.742;1.236;2023-06-14T06:22:17;18.90;99.90
44277;DHT22;29973;43.742;1.236;2023-06-14T06:24:43;18.90;99.90
44277;DHT22;29973;43.742;1.236;2023-06-14T06:27:09;18.80;99.90
44277;DHT22;29973;43.742;1.236;2023-06-14T06:29:35;18.90;99.90
44277;DHT22;29973;43.742;1.236;2023-06-14T06:32:01;18.90;99.90
44277;DHT22;29973;43.742;1.236;2023-06-14T06:34:27;18.90;99.90
44277;DHT22;29973;43.742;1.236;2023-06-14T06:36:53;18.90;99.90
44277;DHT22;29973;43.742;1.236;2023-06-14T06:39:19;19.10;99.90
44277;DHT22;29973;43.742;1.236;2023-06-14T06:41:44;19.10;99.90
44277;DHT22;29973;43.742;1.236;2023-06-14T06:44:10;19.10;99.90
44277;DHT22;29973;43.742;1.236;2023-06-14T06:46:36;19.00;99.90
44277;DHT22;29973;43.742;1.236;2023-06-14T06:49:07;19.10;99.90
44277;DHT22;29973;43.742;1.236;2023-06-14T06:51:34;19.10;99.90
44277;DHT22;29973;43.742;1.236;2023-06-14T06:54:00;19.20;99.90
44277;DHT22;29973;43.742;1.236;2023-06-14T06:56:25;19.30;99.90
44277;DHT22;29973;43.742;1.236;2023-06-14T06:58:51;19.20;99.90
44277;DHT22;29973;43.742;1.236;2023-06-14T07:01:17;19.60;99.90
44277;DHT22;29973;43.742;1.236;2023-06-14T07:03:44;19.40;99.90
44277;DHT22;29973;43.742;1.236;2023-06-14T07:06:09;19.20;99.90
44277;DHT22;29973;43.742;1.236;2023-06-14T07:08:36;19.10;99.90
44277;DHT22;29973;43.742;1.236;2023-06-14T07:11:04;19.20;99.90
44277;DHT22;29973;43.742;1.236;2023-06-14T07:13:30;19.30;99.90
44277;DHT22;29973;43.742;1.236;2023-06-14T07:15:59;19.20;99.90
44277;DHT22;29973;43.742;1.236;2023-06-14T07:18:29;19.20;99.90
44277;DHT22;29973;43.742;1.236;2023-06-14T07:20:56;19.30;99.90
44277;DHT22;29973;43.742;1.236;2023-06-14T07:23:23;19.40;99.90
44277;DHT22;29973;43.742;1.236;2023-06-14T07:25:49;19.40;99.90
44277;DHT22;29973;43.742;1.236;2023-06-14T07:28:16;19.20;99.90
44277;DHT22;29973;43.742;1.236;2023-06-14T07:30:44;19.20;99.90
44277;DHT22;29973;43.742;1.236;2023-06-14T07:33:10;19.20;99.90
44277;DHT22;29973;43.742;1.236;2023-06-14T07:35:40;19.20;99.90
44277;DHT22;29973;43.742;1.236;2023-06-14T07:38:07;19.20;99.90
44277;DHT22;29973;43.742;1.236;2023-06-14T07:40:33;19.40;99.90
44277;DHT22;29973;43.742;1.236;2023-06-14T07:42:58;19.50;99.90
44277;DHT22;29973;43.742;1.236;2023-06-14T07:45:26;19.70;99.90
44277;DHT22;29973;43.742;1.236;2023-06-14T07:47:53;19.60;99.90
44277;DHT22;29973;43.742;1.236;2023-06-14T07:50:20;19.50;99.90
44277;DHT22;29973;43.742;1.236;2023-06-14T07:52:46;19.80;99.90
44277;DHT22;29973;43.742;1.236;2023-06-14T07:55:13;20.10;99.90
44277;DHT22;29973;43.742;1.236;2023-06-14T07:57:40;20.30;99.90
44277;DHT22;29973;43.742;1.236;2023-06-14T08:00:09;20.30;99.90
44277;DHT22;29973;43.742;1.236;2023-06-14T08:02:44;20.90;99.90
44277;DHT22;29973;43.742;1.236;2023-06-14T08:05:12;20.80;99.90
44277;DHT22;29973;43.742;1.236;2023-06-14T08:07:41;20.70;99.90
44277;DHT22;29973;43.742;1.236;2023-06-14T08:10:08;20.80;99.90
44277;DHT22;29973;43.742;1.236;2023-06-14T08:12:34;20.90;99.90
44277;DHT22;29973;43.742;1.236;2023-06-14T08:15:00;20.80;99.90
44277;DHT22;29973;43.742;1.236;2023-06-14T08:17:26;20.50;99.90
44277;DHT22;29973;43.742;1.236;2023-06-14T08:19:52;20.30;99.90
44277;DHT22;29973;43.742;1.236;2023-06-14T08:22:22;20.40;99.90
44277;DHT22;29973;43.742;1.236;2023-06-14T08:24:50;20.30;99.90
44277;DHT22;29973;43.742;1.236;2023-06-14T08:27:15;20.30;99.90
44277;DHT22;29973;43.742;1.236;2023-06-14T08:29:41;20.10;99.90
44277;DHT22;29973;43.742;1.236;2023-06-14T08:32:07;20.30;99.90
44277;DHT22;29973;43.742;1.236;2023-06-14T08:34:34;20.50;99.90
44277;DHT22;29973;43.742;1.236;2023-06-14T08:36:59;20.80;99.90
44277;DHT22;29973;43.742;1.236;2023-06-14T08:39:25;21.20;99.90
44277;DHT22;29973;43.742;1.236;2023-06-14T08:41:52;21.40;99.90
44277;DHT22;29973;43.742;1.236;2023-06-14T08:44:19;21.90;99.90
44277;DHT22;29973;43.742;1.236;2023-06-14T08:46:45;22.40;99.90
44277;DHT22;29973;43.742;1.236;2023-06-14T08:49:16;21.80;99.90
44277;DHT22;29973;43.742;1.236;2023-06-14T08:51:45;22.10;99.90
44277;DHT22;29973;43.742;1.236;2023-06-14T08:54:13;21.90;99.90
44277;DHT22;29973;43.742;1.236;2023-06-14T08:56:40;22.90;99.90
44277;DHT22;29973;43.742;1.236;2023-06-14T08:59:08;23.20;99.90
44277;DHT22;29973;43.742;1.236;2023-06-14T09:01:38;22.50;99.90
44277;DHT22;29973;43.742;1.236;2023-06-14T09:04:05;21.90;99.90
44277;DHT22;29973;43.742;1.236;2023-06-14T09:06:35;21.80;99.90
44277;DHT22;29973;43.742;1.236;2023-06-14T09:09:02;22.00;99.90
44277;DHT22;29973;43.742;1.236;2023-06-14T09:11:35;22.10;99.90
44277;DHT22;29973;43.742;1.236;2023-06-14T09:14:01;22.00;99.90
44277;DHT22;29973;43.742;1.236;2023-06-14T09:16:27;22.50;99.90
44277;DHT22;29973;43.742;1.236;2023-06-14T09:18:54;22.20;99.90
44277;DHT22;29973;43.742;1.236;2023-06-14T09:21:19;22.00;99.90
44277;DHT22;29973;43.742;1.236;2023-06-14T09:23:47;22.10;99.90
44277;DHT22;29973;43.742;1.236;2023-06-14T09:26:15;22.80;99.90
44277;DHT22;29973;43.742;1.236;2023-06-14T09:28:47;22.90;99.90
44277;DHT22;29973;43.742;1.236;2023-06-14T09:31:15;23.60;99.90
44277;DHT22;29973;43.742;1.236;2023-06-14T09:33:45;22.60;99.90
44277;DHT22;29973;43.742;1.236;2023-06-14T09:36:18;23.20;99.90
44277;DHT22;29973;43.742;1.236;2023-06-14T09:41:37;23.10;99.90
44277;DHT22;29973;43.742;1.236;2023-06-14T09:44:04;23.60;99.90
44277;DHT22;29973;43.742;1.236;2023-06-14T09:46:31;23.80;99.90
44277;DHT22;29973;43.742;1.236;2023-06-14T09:49:01;23.90;99.90
44277;DHT22;29973;43.742;1.236;2023-06-14T09:51:28;24.00;99.90
44277;DHT22;29973;43.742;1.236;2023-06-14T09:53:59;23.40;99.90
44277;DHT22;29973;43.742;1.236;2023-06-14T09:56:31;23.70;99.90
44277;DHT22;29973;43.742;1.236;2023-06-14T09:58:59;24.10;99.90
44277;DHT22;29973;43.742;1.236;2023-06-14T10:01:26;24.00;99.90
44277;DHT22;29973;43.742;1.236;2023-06-14T10:04:06;23.50;99.90
44277;DHT22;29973;43.742;1.236;2023-06-14T10:06:38;24.60;99.90
44277;DHT22;29973;43.742;1.236;2023-06-14T10:09:09;24.40;99.90
44277;DHT22;29973;43.742;1.236;2023-06-14T10:11:36;24.60;99.90
44277;DHT22;29973;43.742;1.236;2023-06-14T10:14:04;24.80;99.90
44277;DHT22;29973;43.742;1.236;2023-06-14T10:19:24;24.10;99.90
44277;DHT22;29973;43.742;1.236;2023-06-14T10:22:10;24.70;99.90
44277;DHT22;29973;43.742;1.236;2023-06-14T10:24:44;24.70;99.90
44277;DHT22;29973;43.742;1.236;2023-06-14T10:27:13;25.50;99.90
44277;DHT22;29973;43.742;1.236;2023-06-14T10:32:24;25.00;99.90
44277;DHT22;29973;43.742;1.236;2023-06-14T10:35:08;26.10;99.90
44277;DHT22;29973;43.742;1.236;2023-06-14T10:37:34;26.40;99.90
44277;DHT22;29973;43.742;1.236;2023-06-14T10:40:01;25.70;99.90
44277;DHT22;29973;43.742;1.236;2023-06-14T10:42:33;25.40;99.90
44277;DHT22;29973;43.742;1.236;2023-06-14T10:44:59;25.40;99.90
44277;DHT22;29973;43.742;1.236;2023-06-14T10:47:35;25.90;99.90
44277;DHT22;29973;43.742;1.236;2023-06-14T10:52:29;24.40;99.90
44277;DHT22;29973;43.742;1.236;2023-06-14T10:55:06;24.80;99.90
44277;DHT22;29973;43.742;1.236;2023-06-14T11:00:25;25.30;99.90
44277;DHT22;29973;43.742;1.236;2023-06-14T11:05:51;25.10;99.90
44277;DHT22;29973;43.742;1.236;2023-06-14T11:08:37;26.00;99.90
44277;DHT22;29973;43.742;1.236;2023-06-14T11:11:08;27.00;99.90
44277;DHT22;29973;43.742;1.236;2023-06-14T11:13:41;25.90;99.90
44277;DHT22;29973;43.742;1.236;2023-06-14T11:16:15;25.50;99.90
44277;DHT22;29973;43.742;1.236;2023-06-14T11:18:42;26.10;99.90
44277;DHT22;29973;43.742;1.236;2023-06-14T11:21:09;27.00;99.90
44277;DHT22;29973;43.742;1.236;2023-06-14T11:23:35;27.00;99.90
44277;DHT22;29973;43.742;1.236;2023-06-14T11:26:01;25.70;99.90
44277;DHT22;29973;43.742;1.236;2023-06-14T11:28:40;26.00;99.90
44277;DHT22;29973;43.742;1.236;2023-06-14T11:31:07;26.80;99.90
44277;DHT22;29973;43.742;1.236;2023-06-14T11:33:34;26.40;99.90
44277;DHT22;29973;43.742;1.236;2023-06-14T11:36:02;26.50;99.90
44277;DHT22;29973;43.742;1.236;2023-06-14T11:38:30;26.00;99.90
44277;DHT22;29973;43.742;1.236;2023-06-14T11:40:59;25.90;99.90
44277;DHT22;29973;43.742;1.236;2023-06-14T11:43:25;26.00;99.90
44277;DHT22;29973;43.742;1.236;2023-06-14T11:45:52;28.10;99.90
44277;DHT22;29973;43.742;1.236;2023-06-14T11:48:18;28.40;99.90
44277;DHT22;29973;43.742;1.236;2023-06-14T11:50:50;27.40;99.90
44277;DHT22;29973;43.742;1.236;2023-06-14T11:53:16;29.80;99.90
44277;DHT22;29973;43.742;1.236;2023-06-14T11:55:42;29.20;99.90
44277;DHT22;29973;43.742;1.236;2023-06-14T11:58:10;27.90;99.90
44277;DHT22;29973;43.742;1.236;2023-06-14T12:00:36;29.00;99.90
44277;DHT22;29973;43.742;1.236;2023-06-14T12:03:02;28.40;99.90
44277;DHT22;29973;43.742;1.236;2023-06-14T12:05:28;28.30;99.90
44277;DHT22;29973;43.742;1.236;2023-06-14T12:08:02;26.90;99.90
44277;DHT22;29973;43.742;1.236;2023-06-14T12:10:29;28.90;99.90
44277;DHT22;29973;43.742;1.236;2023-06-14T12:12:59;29.40;99.90
44277;DHT22;29973;43.742;1.236;2023-06-14T12:15:27;30.80;97.10
44277;DHT22;29973;43.742;1.236;2023-06-14T12:17:54;31.20;90.80
44277;DHT22;29973;43.742;1.236;2023-06-14T12:20:20;29.80;94.70
44277;DHT22;29973;43.742;1.236;2023-06-14T12:22:57;28.20;99.40
44277;DHT22;29973;43.742;1.236;2023-06-14T12:25:34;28.30;95.80
44277;DHT22;29973;43.742;1.236;2023-06-14T12:28:05;30.90;93.30
44277;DHT22;29973;43.742;1.236;2023-06-14T12:30:32;30.40;92.80
44277;DHT22;29973;43.742;1.236;2023-06-14T12:32:58;30.10;89.30
44277;DHT22;29973;43.742;1.236;2023-06-14T12:35:23;30.30;90.00
44277;DHT22;29973;43.742;1.236;2023-06-14T12:37:49;30.80;86.40
44277;DHT22;29973;43.742;1.236;2023-06-14T12:40:15;30.90;83.50
44277;DHT22;29973;43.742;1.236;2023-06-14T12:42:41;31.00;82.10
44277;DHT22;29973;43.742;1.236;2023-06-14T12:45:12;31.70;82.00
44277;DHT22;29973;43.742;1.236;2023-06-14T12:47:43;33.00;75.00
44277;DHT22;29973;43.742;1.236;2023-06-14T12:50:11;30.90;82.50
44277;DHT22;29973;43.742;1.236;2023-06-14T12:52:37;30.20;83.90
44277;DHT22;29973;43.742;1.236;2023-06-14T12:55:06;30.90;78.90
44277;DHT22;29973;43.742;1.236;2023-06-14T12:57:32;32.50;78.40
44277;DHT22;29973;43.742;1.236;2023-06-14T13:00:04;35.20;65.40
44277;DHT22;29973;43.742;1.236;2023-06-14T13:02:33;33.40;67.90
44277;DHT22;29973;43.742;1.236;2023-06-14T13:04:59;33.30;67.90
44277;DHT22;29973;43.742;1.236;2023-06-14T13:07:25;32.70;64.70
44277;DHT22;29973;43.742;1.236;2023-06-14T13:09:51;30.30;76.30
44277;DHT22;29973;43.742;1.236;2023-06-14T13:12:17;28.10;82.40
44277;DHT22;29973;43.742;1.236;2023-06-14T13:14:43;30.70;79.40
44277;DHT22;29973;43.742;1.236;2023-06-14T13:17:09;26.90;89.80
44277;DHT22;29973;43.742;1.236;2023-06-14T13:19:35;26.20;91.60
44277;DHT22;29973;43.742;1.236;2023-06-14T13:22:01;27.80;90.10
44277;DHT22;29973;43.742;1.236;2023-06-14T13:24:27;32.80;74.00
44277;DHT22;29973;43.742;1.236;2023-06-14T13:26:55;32.00;74.10
44277;DHT22;29973;43.742;1.236;2023-06-14T13:29:21;32.20;74.20
44277;DHT22;29973;43.742;1.236;2023-06-14T13:31:47;32.50;69.40
44277;DHT22;29973;43.742;1.236;2023-06-14T13:34:12;32.00;71.30
44277;DHT22;29973;43.742;1.236;2023-06-14T13:36:38;31.60;71.50
44277;DHT22;29973;43.742;1.236;2023-06-14T13:39:04;28.60;83.00
44277;DHT22;29973;43.742;1.236;2023-06-14T13:41:30;26.90;87.70
44277;DHT22;29973;43.742;1.236;2023-06-14T13:43:59;29.10;86.50
44277;DHT22;29973;43.742;1.236;2023-06-14T13:46:25;30.80;78.00
44277;DHT22;29973;43.742;1.236;2023-06-14T13:48:51;31.90;73.80
44277;DHT22;29973;43.742;1.236;2023-06-14T13:51:17;33.10;70.10
44277;DHT22;29973;43.742;1.236;2023-06-14T13:53:53;32.50;70.30
44277;DHT22;29973;43.742;1.236;2023-06-14T13:56:20;33.10;66.70
44277;DHT22;29973;43.742;1.236;2023-06-14T13:58:48;29.10;77.80
44277;DHT22;29973;43.742;1.236;2023-06-14T14:01:14;27.80;82.30
44277;DHT22;29973;43.742;1.236;2023-06-14T14:03:39;27.10;87.30
44277;DHT22;29973;43.742;1.236;2023-06-14T14:06:05;26.60;90.90
44277;DHT22;29973;43.742;1.236;2023-06-14T14:08:32;27.10;91.00
44277;DHT22;29973;43.742;1.236;2023-06-14T14:10:59;30.60;82.00
44277;DHT22;29973;43.742;1.236;2023-06-14T14:13:24;28.50;85.10
44277;DHT22;29973;43.742;1.236;2023-06-14T14:15:50;30.40;84.20
44277;DHT22;29973;43.742;1.236;2023-06-14T14:18:16;27.80;90.70
44277;DHT22;29973;43.742;1.236;2023-06-14T14:20:42;28.70;91.90
44277;DHT22;29973;43.742;1.236;2023-06-14T14:23:08;31.50;77.80
44277;DHT22;29973;43.742;1.236;2023-06-14T14:25:34;31.10;80.40
44277;DHT22;29973;43.742;1.236;2023-06-14T14:27:59;32.70;78.50
44277;DHT22;29973;43.742;1.236;2023-06-14T14:30:25;31.00;76.60
44277;DHT22;29973;43.742;1.236;2023-06-14T14:32:51;32.10;77.80
44277;DHT22;29973;43.742;1.236;2023-06-14T14:35:18;30.90;82.20
44277;DHT22;29973;43.742;1.236;2023-06-14T14:37:45;33.00;75.10
44277;DHT22;29973;43.742;1.236;2023-06-14T14:40:12;31.80;72.40
44277;DHT22;29973;43.742;1.236;2023-06-14T14:42:38;32.30;73.30
44277;DHT22;29973;43.742;1.236;2023-06-14T14:45:04;30.60;78.20
44277;DHT22;29973;43.742;1.236;2023-06-14T14:47:30;29.70;83.20
44277;DHT22;29973;43.742;1.236;2023-06-14T14:49:55;27.90;91.00
44277;DHT22;29973;43.742;1.236;2023-06-14T14:52:21;28.60;90.00
44277;DHT22;29973;43.742;1.236;2023-06-14T14:54:47;30.80;83.40
44277;DHT22;29973;43.742;1.236;2023-06-14T14:57:12;31.00;78.70
44277;DHT22;29973;43.742;1.236;2023-06-14T14:59:38;30.90;82.40
44277;DHT22;29973;43.742;1.236;2023-06-14T15:02:04;32.00;78.20
44277;DHT22;29973;43.742;1.236;2023-06-14T15:04:30;32.00;76.20
44277;DHT22;29973;43.742;1.236;2023-06-14T15:06:57;30.10;83.60
44277;DHT22;29973;43.742;1.236;2023-06-14T15:09:23;29.60;83.40
44277;DHT22;29973;43.742;1.236;2023-06-14T15:11:49;28.50;84.70
44277;DHT22;29973;43.742;1.236;2023-06-14T15:14:15;27.50;91.20
44277;DHT22;29973;43.742;1.236;2023-06-14T15:16:41;28.10;91.30
44277;DHT22;29973;43.742;1.236;2023-06-14T15:19:07;27.60;91.10
44277;DHT22;29973;43.742;1.236;2023-06-14T15:21:33;31.40;82.30
44277;DHT22;29973;43.742;1.236;2023-06-14T15:23:59;31.50;80.20
44277;DHT22;29973;43.742;1.236;2023-06-14T15:26:30;28.50;88.30
44277;DHT22;29973;43.742;1.236;2023-06-14T15:29:02;29.30;87.70
44277;DHT22;29973;43.742;1.236;2023-06-14T15:31:42;31.20;80.30
44277;DHT22;29973;43.742;1.236;2023-06-14T15:34:15;30.30;83.70
44277;DHT22;29973;43.742;1.236;2023-06-14T15:36:50;30.00;84.10
44277;DHT22;29973;43.742;1.236;2023-06-14T15:39:24;29.70;83.60
44277;DHT22;29973;43.742;1.236;2023-06-14T15:41:52;30.40;84.40
44277;DHT22;29973;43.742;1.236;2023-06-14T15:44:18;31.20;77.70
44277;DHT22;29973;43.742;1.236;2023-06-14T15:46:44;31.60;76.60
44277;DHT22;29973;43.742;1.236;2023-06-14T15:49:10;31.40;78.90
44277;DHT22;29973;43.742;1.236;2023-06-14T15:51:39;29.50;82.50
44277;DHT22;29973;43.742;1.236;2023-06-14T15:54:08;28.30;83.00